sensor_id;sensor_type;location;lat;lon;timestamp;pressure;altitude;pressure_sealevel;temperature;humidity
22389;BME280;11362;48.102;11.620;2023-02-12T00:01:00;97014.31;;;23.23;34.03
22389;BME280;11362;48.102;11.620;2023-02-12T00:03:25;97010.75;;;23.23;33.76
22389;BME280;11362;48.102;11.620;2023-02-12T00:05:51;97019.84;;;23.23;33.68
22389;BME280;11362;48.102;11.620;2023-02-12T00:08:16;97003.63;;;23.22;33.64
22389;BME280;11362;48.102;11.620;2023-02-12T00:10:42;97007.16;;;23.22;33.49
22389;BME280;11362;48.102;11.620;2023-02-12T00:13:09;97010.75;;;23.23;33.58
22389;BME280;11362;48.102;11.620;2023-02-12T00:15:40;97006.81;;;23.24;33.65
22389;BME280;11362;48.102;11.620;2023-02-12T00:18:06;97005.22;;;23.23;33.60
22389;BME280;11362;48.102;11.620;2023-02-12T00:20:31;96998.47;;;23.24;33.54
22389;BME280;11362;48.102;11.620;2023-02-12T00:22:57;96988.56;;;23.23;33.42
22389;BME280;11362;48.102;11.620;2023-02-12T00:25:22;96982.97;;;23.19;33.44
22389;BME280;11362;48.102;11.620;2023-02-12T00:27:47;96988.16;;;23.21;33.34
22389;BME280;11362;48.102;11.620;2023-02-12T00:30:13;96994.84;;;23.20;33.34
22389;BME280;11362;48.102;11.620;2023-02-12T00:32:38;96996.03;;;23.19;33.37
22389;BME280;11362;48.102;11.620;2023-02-12T00:35:04;96998.00;;;23.18;33.36
22389;BME280;11362;48.102;11.620;2023-02-12T00:37:29;97005.16;;;23.19;33.42
22389;BME280;11362;48.102;11.620;2023-02-12T00:39:54;97004.34;;;23.19;33.43
22389;BME280;11362;48.102;11.620;2023-02-12T00:42:20;96998.78;;;23.19;33.36
22389;BME280;11362;48.102;11.620;2023-02-12T00:44:45;96990.06;;;23.17;33.47
22389;BME280;11362;48.102;11.620;2023-02-12T00:47:10;96989.28;;;23.16;33.42
22389;BME280;11362;48.102;11.620;2023-02-12T00:49:35;96994.00;;;23.16;33.53
22389;BME280;11362;48.102;11.620;2023-02-12T00:52:01;96997.94;;;23.15;33.27
22389;BME280;11362;48.102;11.620;2023-02-12T00:54:28;96993.19;;;23.15;33.41
22389;BME280;11362;48.102;11.620;2023-02-12T00:56:54;96996.34;;;23.14;33.46
22389;BME280;11362;48.102;11.620;2023-02-12T00:59:19;96997.94;;;23.15;33.44
22389;BME280;11362;48.102;11.620;2023-02-12T01:01:44;96996.34;;;23.14;33.44
22389;BME280;11362;48.102;11.620;2023-02-12T01:04:10;97001.88;;;23.14;33.33
22389;BME280;11362;48.102;11.620;2023-02-12T01:06:35;97008.59;;;23.13;33.44
22389;BME280;11362;48.102;11.620;2023-02-12T01:09:00;97007.41;;;23.14;33.34
22389;BME280;11362;48.102;11.620;2023-02-12T01:11:26;97003.84;;;23.13;33.45
22389;BME280;11362;48.102;11.620;2023-02-12T01:13:51;97007.41;;;23.14;33.49
22389;BME280;11362;48.102;11.620;2023-02-12T01:16:19;96996.34;;;23.14;33.31
22389;BME280;11362;48.102;11.620;2023-02-12T01:18:46;96989.56;;;23.11;33.14
22389;BME280;11362;48.102;11.620;2023-02-12T01:21:14;96987.56;;;23.12;33.39
22389;BME280;11362;48.102;11.620;2023-02-12T01:23:40;96987.56;;;23.12;33.49
22389;BME280;11362;48.102;11.620;2023-02-12T01:26:06;96987.56;;;23.12;33.34
22389;BME280;11362;48.102;11.620;2023-02-12T01:28:32;96995.88;;;23.12;33.29
22389;BME280;11362;48.102;11.620;2023-02-12T01:30:58;96997.88;;;23.11;33.16
22389;BME280;11362;48.102;11.620;2023-02-12T01:33:23;97002.59;;;23.11;33.21
22389;BME280;11362;48.102;11.620;2023-02-12T01:35:48;97001.81;;;23.10;33.46
22389;BME280;11362;48.102;11.620;2023-02-12T01:38:13;96997.88;;;23.11;33.17
22389;BME280;11362;48.102;11.620;2023-02-12T01:40:39;97003.78;;;23.10;33.18
22389;BME280;11362;48.102;11.620;2023-02-12T01:43:06;97004.59;;;23.10;33.33
22389;BME280;11362;48.102;11.620;2023-02-12T01:48:00;97005.78;;;23.09;33.18
22389;BME280;11362;48.102;11.620;2023-02-12T01:50:25;97010.50;;;23.09;33.30
22389;BME280;11362;48.102;11.620;2023-02-12T01:52:54;97005.78;;;23.09;33.02
22389;BME280;11362;48.102;11.620;2023-02-12T01:55:20;97012.09;;;23.10;33.12
22389;BME280;11362;48.102;11.620;2023-02-12T01:57:47;97020.78;;;23.08;33.16
22389;BME280;11362;48.102;11.620;2023-02-12T02:00:15;97018.81;;;23.09;33.16
22389;BME280;11362;48.102;11.620;2023-02-12T02:02:44;97008.91;;;23.08;33.20
22389;BME280;11362;48.102;11.620;2023-02-12T02:05:11;97001.75;;;23.07;33.07
22389;BME280;11362;48.102;11.620;2023-02-12T02:07:40;97002.53;;;23.07;33.16
22389;BME280;11362;48.102;11.620;2023-02-12T02:10:07;97007.31;;;23.07;33.08
22389;BME280;11362;48.102;11.620;2023-02-12T02:12:33;97001.75;;;23.07;33.21
22389;BME280;11362;48.102;11.620;2023-02-12T02:14:59;96991.47;;;23.07;33.26
22389;BME280;11362;48.102;11.620;2023-02-12T02:17:38;96987.50;;;23.08;33.16
22389;BME280;11362;48.102;11.620;2023-02-12T02:23:38;96995.03;;;23.08;33.17
22389;BME280;11362;48.102;11.620;2023-02-12T02:26:31;96996.22;;;23.07;32.80
22389;BME280;11362;48.102;11.620;2023-02-12T02:36:45;96999.00;;;23.07;32.92
22389;BME280;11362;48.102;11.620;2023-02-12T02:39:28;96993.44;;;23.07;32.62
22389;BME280;11362;48.102;11.620;2023-02-12T02:42:06;96984.31;;;23.06;32.71
22389;BME280;11362;48.102;11.620;2023-02-12T02:44:45;96995.41;;;23.06;32.68
22389;BME280;11362;48.102;11.620;2023-02-12T02:47:13;96982.72;;;23.05;32.75
22389;BME280;11362;48.102;11.620;2023-02-12T02:49:49;96978.34;;;23.04;32.57
22389;BME280;11362;48.102;11.620;2023-02-12T02:52:21;96977.19;;;23.05;32.55
22389;BME280;11362;48.102;11.620;2023-02-12T02:54:55;96976.38;;;23.05;32.62
22389;BME280;11362;48.102;11.620;2023-02-12T02:57:33;96980.75;;;23.06;32.48
22389;BME280;11362;48.102;11.620;2023-02-12T03:00:07;96978.00;;;23.06;32.43
22389;BME280;11362;48.102;11.620;2023-02-12T03:02:37;96973.59;;;23.05;32.59
22389;BME280;11362;48.102;11.620;2023-02-12T03:05:12;96966.09;;;23.05;32.51
22389;BME280;11362;48.102;11.620;2023-02-12T03:07:49;96978.00;;;23.06;32.19
22389;BME280;11362;48.102;11.620;2023-02-12T03:10:24;96977.19;;;23.05;32.24
22389;BME280;11362;48.102;11.620;2023-02-12T03:12:55;96989.09;;;23.06;32.47
22389;BME280;11362;48.102;11.620;2023-02-12T03:15:35;96987.44;;;23.05;32.24
22389;BME280;11362;48.102;11.620;2023-02-12T03:18:05;96989.09;;;23.06;32.42
22389;BME280;11362;48.102;11.620;2023-02-12T03:20:35;96991.84;;;23.06;32.28
22389;BME280;11362;48.102;11.620;2023-02-12T03:23:11;96998.53;;;23.05;32.15
22389;BME280;11362;48.102;11.620;2023-02-12T03:25:45;96998.53;;;23.05;32.20
22389;BME280;11362;48.102;11.620;2023-02-12T03:28:20;97004.09;;;23.05;32.58
22389;BME280;11362;48.102;11.620;2023-02-12T03:31:10;97004.09;;;23.05;32.20
22389;BME280;11362;48.102;11.620;2023-02-12T03:34:01;97004.09;;;23.05;31.90
22389;BME280;11362;48.102;11.620;2023-02-12T03:36:43;97008.03;;;23.04;32.01
22389;BME280;11362;48.102;11.620;2023-02-12T03:39:29;97004.09;;;23.05;32.16
22389;BME280;11362;48.102;11.620;2023-02-12T03:42:07;97003.31;;;23.04;32.03
22389;BME280;11362;48.102;11.620;2023-02-12T03:44:53;96998.53;;;23.05;32.00
22389;BME280;11362;48.102;11.620;2023-02-12T03:49:54;96998.53;;;23.05;32.49
22389;BME280;11362;48.102;11.620;2023-02-12T03:52:23;96997.75;;;23.04;32.00
22389;BME280;11362;48.102;11.620;2023-02-12T03:54:49;97007.66;;;23.05;32.02
22389;BME280;11362;48.102;11.620;2023-02-12T03:57:26;96998.53;;;23.05;31.77
22389;BME280;11362;48.102;11.620;2023-02-12T03:59:55;97007.66;;;23.05;31.88
22389;BME280;11362;48.102;11.620;2023-02-12T04:02:20;97008.84;;;23.04;32.01
22389;BME280;11362;48.102;11.620;2023-02-12T04:04:46;97017.94;;;23.05;31.84
22389;BME280;11362;48.102;11.620;2023-02-12T04:07:12;97012.41;;;23.05;31.79
22389;BME280;11362;48.102;11.620;2023-02-12T04:09:38;97017.16;;;23.04;31.65
22389;BME280;11362;48.102;11.620;2023-02-12T04:12:38;97023.50;;;23.05;31.65
22389;BME280;11362;48.102;11.620;2023-02-12T04:17:55;97026.25;;;23.05;31.77
22389;BME280;11362;48.102;11.620;2023-02-12T04:20:56;97030.22;;;23.04;31.65
22389;BME280;11362;48.102;11.620;2023-02-12T04:29:31;97035.75;;;23.04;31.75
22389;BME280;11362;48.102;11.620;2023-02-12T04:34:31;97032.63;;;23.05;31.69
22389;BME280;11362;48.102;11.620;2023-02-12T04:37:09;97034.97;;;23.03;31.65
22389;BME280;11362;48.102;11.620;2023-02-12T04:39:40;97041.69;;;23.02;31.94
22389;BME280;11362;48.102;11.620;2023-02-12T04:42:06;97048.44;;;23.05;32.24
22389;BME280;11362;48.102;11.620;2023-02-12T04:44:37;97039.69;;;23.03;32.04
22389;BME280;11362;48.102;11.620;2023-02-12T04:47:03;97046.84;;;23.04;31.84
22389;BME280;11362;48.102;11.620;2023-02-12T04:49:28;97041.28;;;23.04;32.13
22389;BME280;11362;48.102;11.620;2023-02-12T04:51:54;97043.66;;;23.02;32.25
22389;BME280;11362;48.102;11.620;2023-02-12T04:54:20;97046.84;;;23.04;32.31
22389;BME280;11362;48.102;11.620;2023-02-12T04:56:47;97049.19;;;23.02;32.42
22389;BME280;11362;48.102;11.620;2023-02-12T04:59:13;97044.47;;;23.02;32.18
22389;BME280;11362;48.102;11.620;2023-02-12T05:01:40;97046.84;;;23.04;32.29
22389;BME280;11362;48.102;11.620;2023-02-12T05:04:06;97051.22;;;23.05;32.24
22389;BME280;11362;48.102;11.620;2023-02-12T05:06:36;97044.06;;;23.04;32.20
22389;BME280;11362;48.102;11.620;2023-02-12T05:09:02;97049.63;;;23.04;32.12
22389;BME280;11362;48.102;11.620;2023-02-12T05:11:28;97054.72;;;23.02;32.24
22389;BME280;11362;48.102;11.620;2023-02-12T05:13:54;97054.72;;;23.02;32.19
22389;BME280;11362;48.102;11.620;2023-02-12T05:16:20;97052.78;;;23.02;32.34
22389;BME280;11362;48.102;11.620;2023-02-12T05:18:46;97056.31;;;23.03;32.00
22389;BME280;11362;48.102;11.620;2023-02-12T05:21:12;97056.31;;;23.03;32.17
22389;BME280;11362;48.102;11.620;2023-02-12T05:23:39;97055.53;;;23.02;32.07
22389;BME280;11362;48.102;11.620;2023-02-12T05:26:09;97056.31;;;23.03;31.91
22389;BME280;11362;48.102;11.620;2023-02-12T05:28:35;97065.06;;;23.05;31.81
22389;BME280;11362;48.102;11.620;2023-02-12T05:31:02;97065.06;;;23.05;31.87
22389;BME280;11362;48.102;11.620;2023-02-12T05:33:28;97062.28;;;23.05;31.70
22389;BME280;11362;48.102;11.620;2023-02-12T05:35:54;97060.69;;;23.04;31.98
22389;BME280;11362;48.102;11.620;2023-02-12T05:38:20;97057.94;;;23.04;31.88
22389;BME280;11362;48.102;11.620;2023-02-12T05:40:46;97067.41;;;23.03;31.81
22389;BME280;11362;48.102;11.620;2023-02-12T05:43:12;97070.59;;;23.05;31.57
22389;BME280;11362;48.102;11.620;2023-02-12T05:45:38;97071.41;;;23.05;31.40
22389;BME280;11362;48.102;11.620;2023-02-12T05:48:03;97069.00;;;23.04;31.48
22389;BME280;11362;48.102;11.620;2023-02-12T05:50:29;97069.41;;;23.02;31.38
22389;BME280;11362;48.102;11.620;2023-02-12T05:52:54;97073.38;;;23.05;31.35
22389;BME280;11362;48.102;11.620;2023-02-12T05:55:20;97074.56;;;23.04;31.33
22389;BME280;11362;48.102;11.620;2023-02-12T05:57:45;97069.00;;;23.04;31.41
22389;BME280;11362;48.102;11.620;2023-02-12T06:00:12;97069.00;;;23.04;31.59
22389;BME280;11362;48.102;11.620;2023-02-12T06:02:38;97067.84;;;23.05;31.57
22389;BME280;11362;48.102;11.620;2023-02-12T06:05:04;97071.41;;;23.05;31.76
22389;BME280;11362;48.102;11.620;2023-02-12T06:07:30;97073.38;;;23.05;31.43
22389;BME280;11362;48.102;11.620;2023-02-12T06:09:55;97077.31;;;23.04;31.74
22389;BME280;11362;48.102;11.620;2023-02-12T06:12:20;97072.59;;;23.04;31.96
22389;BME280;11362;48.102;11.620;2023-02-12T06:14:46;97074.56;;;23.04;31.84
22389;BME280;11362;48.102;11.620;2023-02-12T06:17:12;97077.31;;;23.04;31.26
22389;BME280;11362;48.102;11.620;2023-02-12T06:19:37;97085.63;;;23.04;31.46
22389;BME280;11362;48.102;11.620;2023-02-12T06:22:03;97081.69;;;23.05;31.38
22389;BME280;11362;48.102;11.620;2023-02-12T06:24:29;97089.22;;;23.04;31.32
22389;BME280;11362;48.102;11.620;2023-02-12T06:26:55;97090.00;;;23.05;31.61
22389;BME280;11362;48.102;11.620;2023-02-12T06:29:20;97088.41;;;23.04;31.51
22389;BME280;11362;48.102;11.620;2023-02-12T06:31:46;97096.38;;;23.05;31.28
22389;BME280;11362;48.102;11.620;2023-02-12T06:34:14;97096.72;;;23.04;31.14
22389;BME280;11362;48.102;11.620;2023-02-12T06:36:41;97097.53;;;23.04;31.29
22389;BME280;11362;48.102;11.620;2023-02-12T06:39:07;97089.22;;;23.04;31.49
22389;BME280;11362;48.102;11.620;2023-02-12T06:41:33;97101.09;;;23.05;31.13
22389;BME280;11362;48.102;11.620;2023-02-12T06:43:58;97103.88;;;23.05;31.11
22389;BME280;11362;48.102;11.620;2023-02-12T06:46:24;97092.41;;;23.06;31.14
22389;BME280;11362;48.102;11.620;2023-02-12T06:48:57;97105.50;;;23.06;31.00
22389;BME280;11362;48.102;11.620;2023-02-12T06:51:23;97098.31;;;23.05;30.96
22389;BME280;11362;48.102;11.620;2023-02-12T06:53:50;97095.56;;;23.05;31.01
22389;BME280;11362;48.102;11.620;2023-02-12T06:56:16;97109.41;;;23.05;30.99
22389;BME280;11362;48.102;11.620;2023-02-12T06:58:44;97109.06;;;23.06;30.92
22389;BME280;11362;48.102;11.620;2023-02-12T07:01:15;97105.09;;;23.07;31.48
22389;BME280;11362;48.102;11.620;2023-02-12T07:03:42;97090.88;;;23.09;31.55
22389;BME280;11362;48.102;11.620;2023-02-12T07:06:09;97098.84;;;23.10;31.44
22389;BME280;11362;48.102;11.620;2023-02-12T07:08:35;97101.22;;;23.12;31.35
22389;BME280;11362;48.102;11.620;2023-02-12T07:11:01;97098.91;;;23.14;31.56
22389;BME280;11362;48.102;11.620;2023-02-12T07:13:27;97100.84;;;23.13;31.40
22389;BME280;11362;48.102;11.620;2023-02-12T07:15:52;97102.47;;;23.14;31.71
22389;BME280;11362;48.102;11.620;2023-02-12T07:18:18;97112.75;;;23.14;31.62
22389;BME280;11362;48.102;11.620;2023-02-12T07:20:43;97114.38;;;23.15;31.33
22389;BME280;11362;48.102;11.620;2023-02-12T07:23:12;97110.44;;;23.16;31.39
22389;BME280;11362;48.102;11.620;2023-02-12T07:25:38;97110.44;;;23.16;31.35
22389;BME280;11362;48.102;11.620;2023-02-12T07:28:03;97108.50;;;23.16;31.58
22389;BME280;11362;48.102;11.620;2023-02-12T07:30:29;97104.91;;;23.16;31.82
22389;BME280;11362;48.102;11.620;2023-02-12T07:32:55;97103.72;;;23.17;31.57
22389;BME280;11362;48.102;11.620;2023-02-12T07:35:20;97097.72;;;23.15;31.77
22389;BME280;11362;48.102;11.620;2023-02-12T07:37:46;97104.91;;;23.16;31.66
22389;BME280;11362;48.102;11.620;2023-02-12T07:40:11;97102.13;;;23.16;31.86
22389;BME280;11362;48.102;11.620;2023-02-12T07:42:37;97094.63;;;23.16;31.67
22389;BME280;11362;48.102;11.620;2023-02-12T07:45:02;97097.41;;;23.16;31.71
22389;BME280;11362;48.102;11.620;2023-02-12T07:47:28;97094.63;;;23.16;31.92
22389;BME280;11362;48.102;11.620;2023-02-12T07:49:53;97098.19;;;23.17;32.00
22389;BME280;11362;48.102;11.620;2023-02-12T07:52:19;97061.69;;;23.15;31.95
22389;BME280;11362;48.102;11.620;2023-02-12T07:54:46;97067.69;;;23.17;32.34
22389;BME280;11362;48.102;11.620;2023-02-12T07:57:12;97069.28;;;23.18;32.59
22389;BME280;11362;48.102;11.620;2023-02-12T07:59:37;97095.47;;;23.20;32.61
22389;BME280;11362;48.102;11.620;2023-02-12T08:02:02;97099.91;;;23.25;32.83
22389;BME280;11362;48.102;11.620;2023-02-12T08:04:28;97100.31;;;23.27;32.92
22389;BME280;11362;48.102;11.620;2023-02-12T08:06:54;97093.19;;;23.26;33.03
22389;BME280;11362;48.102;11.620;2023-02-12T08:09:23;97101.94;;;23.28;33.19
22389;BME280;11362;48.102;11.620;2023-02-12T08:11:49;97098.34;;;23.27;33.01
22389;BME280;11362;48.102;11.620;2023-02-12T08:14:17;97094.41;;;23.28;33.11
22389;BME280;11362;48.102;11.620;2023-02-12T08:16:44;97069.44;;;23.28;33.35
22389;BME280;11362;48.102;11.620;2023-02-12T08:19:10;97074.22;;;23.28;33.04
22389;BME280;11362;48.102;11.620;2023-02-12T08:21:36;97061.13;;;23.28;32.93
22389;BME280;11362;48.102;11.620;2023-02-12T08:24:01;97092.44;;;23.29;33.69
22389;BME280;11362;48.102;11.620;2023-02-12T08:26:30;97094.41;;;23.28;33.27
22389;BME280;11362;48.102;11.620;2023-02-12T08:29:05;97090.84;;;23.28;33.25
22389;BME280;11362;48.102;11.620;2023-02-12T08:31:34;97095.94;;;23.26;33.36
22389;BME280;11362;48.102;11.620;2023-02-12T08:34:00;97104.28;;;23.26;33.22
22389;BME280;11362;48.102;11.620;2023-02-12T08:36:28;97095.16;;;23.25;33.04
22389;BME280;11362;48.102;11.620;2023-02-12T08:38:57;97087.22;;;23.24;32.65
22389;BME280;11362;48.102;11.620;2023-02-12T08:41:28;97089.97;;;23.24;32.59
22389;BME280;11362;48.102;11.620;2023-02-12T08:43:58;97085.63;;;23.23;32.50
22389;BME280;11362;48.102;11.620;2023-02-12T08:46:27;97082.84;;;23.23;32.75
22389;BME280;11362;48.102;11.620;2023-02-12T08:48:55;97089.56;;;23.22;32.92
22389;BME280;11362;48.102;11.620;2023-02-12T08:51:24;97090.34;;;23.22;32.61
22389;BME280;11362;48.102;11.620;2023-02-12T08:53:57;97089.56;;;23.22;32.51
22389;BME280;11362;48.102;11.620;2023-02-12T08:56:24;97082.84;;;23.23;32.21
22389;BME280;11362;48.102;11.620;2023-02-12T08:58:50;97083.19;;;23.21;31.90
22389;BME280;11362;48.102;11.620;2023-02-12T09:01:19;97084.81;;;23.22;32.16
22389;BME280;11362;48.102;11.620;2023-02-12T09:03:46;97087.56;;;23.22;32.09
22389;BME280;11362;48.102;11.620;2023-02-12T09:06:12;97099.47;;;23.23;31.91
22389;BME280;11362;48.102;11.620;2023-02-12T09:08:38;97084.81;;;23.22;31.99
22389;BME280;11362;48.102;11.620;2023-02-12T09:11:05;97088.38;;;23.23;32.03
22389;BME280;11362;48.102;11.620;2023-02-12T09:13:31;97087.22;;;23.24;32.15
22389;BME280;11362;48.102;11.620;2023-02-12T09:15:59;97096.34;;;23.24;32.01
22389;BME280;11362;48.102;11.620;2023-02-12T09:18:25;97094.34;;;23.25;32.15
22389;BME280;11362;48.102;11.620;2023-02-12T09:20:50;97096.34;;;23.24;32.21
22389;BME280;11362;48.102;11.620;2023-02-12T09:23:16;97095.53;;;23.24;32.00
22389;BME280;11362;48.102;11.620;2023-02-12T09:25:43;97096.69;;;23.23;32.25
22389;BME280;11362;48.102;11.620;2023-02-12T09:28:10;97100.25;;;23.23;32.08
22389;BME280;11362;48.102;11.620;2023-02-12T09:30:37;97110.56;;;23.23;32.36
22389;BME280;11362;48.102;11.620;2023-02-12T09:33:04;97105.03;;;23.23;32.08
22389;BME280;11362;48.102;11.620;2023-02-12T09:35:33;97103.44;;;23.22;32.13
22389;BME280;11362;48.102;11.620;2023-02-12T09:37:58;97108.97;;;23.22;32.12
22389;BME280;11362;48.102;11.620;2023-02-12T09:40:32;97110.56;;;23.23;32.22
22389;BME280;11362;48.102;11.620;2023-02-12T09:45:37;97101.44;;;23.22;32.10
22389;BME280;11362;48.102;11.620;2023-02-12T09:48:27;97105.03;;;23.23;32.30
22389;BME280;11362;48.102;11.620;2023-02-12T09:50:59;97105.03;;;23.23;31.93
22389;BME280;11362;48.102;11.620;2023-02-12T09:53:29;97105.03;;;23.23;32.33
22389;BME280;11362;48.102;11.620;2023-02-12T09:55:55;97099.47;;;23.23;32.14
22389;BME280;11362;48.102;11.620;2023-02-12T09:58:34;97102.25;;;23.23;32.20
22389;BME280;11362;48.102;11.620;2023-02-12T10:01:17;97107.78;;;23.23;32.22
22389;BME280;11362;48.102;11.620;2023-02-12T10:03:44;97105.03;;;23.23;32.34
22389;BME280;11362;48.102;11.620;2023-02-12T10:06:24;97108.16;;;23.21;32.37
22389;BME280;11362;48.102;11.620;2023-02-12T10:11:49;97107.38;;;23.21;32.28
22389;BME280;11362;48.102;11.620;2023-02-12T10:20:22;97105.81;;;23.23;32.05
22389;BME280;11362;48.102;11.620;2023-02-12T10:23:29;97101.50;;;23.26;32.17
22389;BME280;11362;48.102;11.620;2023-02-12T10:26:15;97099.59;;;23.30;32.03
22389;BME280;11362;48.102;11.620;2023-02-12T10:28:43;97099.59;;;23.30;32.10
22389;BME280;11362;48.102;11.620;2023-02-12T10:31:18;97109.16;;;23.32;31.84
22389;BME280;11362;48.102;11.620;2023-02-12T10:33:47;97109.22;;;23.36;31.60
22389;BME280;11362;48.102;11.620;2023-02-12T10:36:41;97106.44;;;23.36;31.79
22389;BME280;11362;48.102;11.620;2023-02-12T10:41:48;97108.44;;;23.38;31.60
22389;BME280;11362;48.102;11.620;2023-02-12T10:44:14;97104.50;;;23.39;31.54
22389;BME280;11362;48.102;11.620;2023-02-12T10:46:40;97108.50;;;23.42;31.54
22389;BME280;11362;48.102;11.620;2023-02-12T10:49:06;97105.00;;;23.45;31.60
22389;BME280;11362;48.102;11.620;2023-02-12T10:51:55;97107.38;;;23.46;31.66
22389;BME280;11362;48.102;11.620;2023-02-12T10:57:17;97108.25;;;23.50;31.51
22389;BME280;11362;48.102;11.620;2023-02-12T10:59:45;97101.47;;;23.48;31.51
22389;BME280;11362;48.102;11.620;2023-02-12T11:02:32;97100.34;;;23.52;31.47
22389;BME280;11362;48.102;11.620;2023-02-12T11:04:59;97097.22;;;23.54;31.47
22389;BME280;11362;48.102;11.620;2023-02-12T11:07:27;97096.03;;;23.55;31.43
22389;BME280;11362;48.102;11.620;2023-02-12T11:09:55;97092.50;;;23.58;31.47
22389;BME280;11362;48.102;11.620;2023-02-12T11:12:40;97085.00;;;23.58;31.39
22389;BME280;11362;48.102;11.620;2023-02-12T11:15:13;97093.31;;;23.58;31.38
22389;BME280;11362;48.102;11.620;2023-02-12T11:17:42;97085.00;;;23.58;31.39
22389;BME280;11362;48.102;11.620;2023-02-12T11:22:59;97092.03;;;23.52;31.52
22389;BME280;11362;48.102;11.620;2023-02-12T11:25:33;97092.03;;;23.52;31.86
22389;BME280;11362;48.102;11.620;2023-02-12T11:28:16;97078.56;;;23.54;31.26
22389;BME280;11362;48.102;11.620;2023-02-12T11:30:59;97085.00;;;23.58;31.45
22389;BME280;11362;48.102;11.620;2023-02-12T11:33:28;97079.88;;;23.60;31.30
22389;BME280;11362;48.102;11.620;2023-02-12T11:36:21;97078.69;;;23.61;31.36
22389;BME280;11362;48.102;11.620;2023-02-12T11:38:55;97074.72;;;23.62;31.36
22389;BME280;11362;48.102;11.620;2023-02-12T11:43:55;97065.63;;;23.62;31.39
22389;BME280;11362;48.102;11.620;2023-02-12T11:46:23;97074.00;;;23.65;31.29
22389;BME280;11362;48.102;11.620;2023-02-12T11:48:50;97062.91;;;23.65;31.50
22389;BME280;11362;48.102;11.620;2023-02-12T11:51:28;97066.03;;;23.64;31.40
22389;BME280;11362;48.102;11.620;2023-02-12T11:53:56;97071.66;;;23.67;31.26
22389;BME280;11362;48.102;11.620;2023-02-12T11:56:23;97062.13;;;23.68;31.30
22389;BME280;11362;48.102;11.620;2023-02-12T11:58:50;97062.13;;;23.68;31.50
22389;BME280;11362;48.102;11.620;2023-02-12T12:01:26;97067.69;;;23.68;31.31
22389;BME280;11362;48.102;11.620;2023-02-12T12:04:05;97058.63;;;23.71;31.36
22389;BME280;11362;48.102;11.620;2023-02-12T12:06:36;97056.66;;;23.72;31.20
22389;BME280;11362;48.102;11.620;2023-02-12T12:09:36;97057.47;;;23.72;31.23
22389;BME280;11362;48.102;11.620;2023-02-12T12:12:21;97057.88;;;23.74;31.31
22389;BME280;11362;48.102;11.620;2023-02-12T12:14:51;97051.16;;;23.75;31.11
22389;BME280;11362;48.102;11.620;2023-02-12T12:17:19;97057.50;;;23.76;31.14
22389;BME280;11362;48.102;11.620;2023-02-12T12:19:55;97051.19;;;23.79;31.21
22389;BME280;11362;48.102;11.620;2023-02-12T12:22:38;97043.69;;;23.79;31.23
22389;BME280;11362;48.102;11.620;2023-02-12T12:31:01;97034.19;;;23.80;31.11
22389;BME280;11362;48.102;11.620;2023-02-12T12:33:42;97039.31;;;23.78;31.13
22389;BME280;11362;48.102;11.620;2023-02-12T12:39:15;97035.78;;;23.81;31.06
22389;BME280;11362;48.102;11.620;2023-02-12T12:42:01;97032.22;;;23.81;31.08
22389;BME280;11362;48.102;11.620;2023-02-12T12:53:17;97029.94;;;23.86;31.08
22389;BME280;11362;48.102;11.620;2023-02-12T12:56:12;97035.91;;;23.88;31.02
22389;BME280;11362;48.102;11.620;2023-02-12T13:18:50;97020.50;;;23.94;30.98
22389;BME280;11362;48.102;11.620;2023-02-12T13:21:28;97030.81;;;23.94;30.85
22389;BME280;11362;48.102;11.620;2023-02-12T13:24:03;97022.91;;;23.96;30.85
22389;BME280;11362;48.102;11.620;2023-02-12T13:26:50;97027.66;;;23.95;30.86
22389;BME280;11362;48.102;11.620;2023-02-12T13:29:21;97026.06;;;23.94;30.94
22389;BME280;11362;48.102;11.620;2023-02-12T13:31:56;97025.28;;;23.97;30.85
22389;BME280;11362;48.102;11.620;2023-02-12T13:34:26;97010.22;;;23.98;30.68
22389;BME280;11362;48.102;11.620;2023-02-12T13:36:53;97021.78;;;24.00;30.71
22389;BME280;11362;48.102;11.620;2023-02-12T13:39:29;97019.00;;;24.00;30.73
22389;BME280;11362;48.102;11.620;2023-02-12T13:42:27;97025.34;;;24.01;30.78
22389;BME280;11362;48.102;11.620;2023-02-12T13:48:18;97011.09;;;24.02;30.82
22389;BME280;11362;48.102;11.620;2023-02-12T13:51:09;97011.91;;;24.03;30.77
22389;BME280;11362;48.102;11.620;2023-02-12T13:56:44;97020.97;;;24.00;30.84
22389;BME280;11362;48.102;11.620;2023-02-12T14:07:17;97002.31;;;23.97;30.77
22389;BME280;11362;48.102;11.620;2023-02-12T14:15:22;97008.56;;;23.90;30.69
22389;BME280;11362;48.102;11.620;2023-02-12T14:17:52;96971.25;;;23.88;30.57
22389;BME280;11362;48.102;11.620;2023-02-12T14:20:35;97037.81;;;23.84;30.62
22389;BME280;11362;48.102;11.620;2023-02-12T14:25:47;96978.66;;;23.80;31.02
22389;BME280;11362;48.102;11.620;2023-02-12T14:28:23;96975.47;;;23.78;30.96
22389;BME280;11362;48.102;11.620;2023-02-12T14:33:52;97005.97;;;23.75;30.90
22389;BME280;11362;48.102;11.620;2023-02-12T14:39:43;97009.09;;;23.73;30.83
22389;BME280;11362;48.102;11.620;2023-02-12T14:41:53;97017.78;;;23.72;30.80
22389;BME280;11362;48.102;11.620;2023-02-12T14:46:47;97013.38;;;23.67;30.92
22389;BME280;11362;48.102;11.620;2023-02-12T14:54:42;97010.59;;;23.67;30.93
22389;BME280;11362;48.102;11.620;2023-02-12T14:57:30;97013.75;;;23.66;31.09
22389;BME280;11362;48.102;11.620;2023-02-12T15:02:44;97007.00;;;23.63;31.04
22389;BME280;11362;48.102;11.620;2023-02-12T15:05:22;97007.72;;;23.60;31.27
22389;BME280;11362;48.102;11.620;2023-02-12T15:07:52;97015.31;;;23.63;31.08
22389;BME280;11362;48.102;11.620;2023-02-12T15:10:34;96984.34;;;23.61;31.35
22389;BME280;11362;48.102;11.620;2023-02-12T15:13:17;96977.22;;;23.60;31.09